createdAt,value
2018-03-19T00:00:07.182Z,28.55
2018-03-19T00:02:35.238Z,31.70
2018-03-19T00:05:03.557Z,32.28
2018-03-19T00:07:33.183Z,26.27
2018-03-19T00:10:03.072Z,24.85
2018-03-19T00:12:31.362Z,30.80
2018-03-19T00:15:01.384Z,28.45
2018-03-19T00:17:30.446Z,32.60
2018-03-19T00:19:58.764Z,30.55
2018-03-19T00:22:28.688Z,29.05
2018-03-19T00:24:57.765Z,31.58
2018-03-19T00:27:26.059Z,32.30
2018-03-19T00:29:55.252Z,32.35
2018-03-19T00:32:23.554Z,32.60
2018-03-19T00:34:51.842Z,29.17
2018-03-19T00:37:21.527Z,30.62
2018-03-19T00:39:49.822Z,32.35
2018-03-19T00:42:18.172Z,34.95
2018-03-19T00:44:47.084Z,40.58
2018-03-19T00:47:15.363Z,34.20
2018-03-19T00:49:43.649Z,33.63
2018-03-19T00:52:12.603Z,34.90
2018-03-19T00:54:40.882Z,34.42
2018-03-19T00:57:09.170Z,31.98
2018-03-19T00:59:38.127Z,34.78
2018-03-19T01:02:07.193Z,34.92
2018-03-19T01:04:35.487Z,34.63
2018-03-19T01:07:04.478Z,43.05
2018-03-19T01:09:32.785Z,27.08
2018-03-19T01:12:01.861Z,32.17
2018-03-19T01:14:31.179Z,40.50
2018-03-19T01:16:59.457Z,33.53
2018-03-19T01:19:27.753Z,46.78
2018-03-19T01:21:56.496Z,31.67
2018-03-19T01:24:26.001Z,33.38
2018-03-19T01:26:54.282Z,39.10
2018-03-19T01:29:23.536Z,29.20
2018-03-19T01:31:55.746Z,38.63
2018-03-19T01:34:24.730Z,29.83
2018-03-19T01:36:53.029Z,35.92
2018-03-19T01:39:21.567Z,33.33
2018-03-19T01:41:51.301Z,31.60
2018-03-19T01:44:20.361Z,33.08
2018-03-19T01:46:48.645Z,31.90
2018-03-19T01:49:17.680Z,35.63
2018-03-19T01:51:45.991Z,38.47
2018-03-19T01:54:14.269Z,34.15
2018-03-19T01:56:43.269Z,32.92
2018-03-19T01:59:11.566Z,34.45
2018-03-19T02:01:39.849Z,33.92
2018-03-19T02:04:09.318Z,34.50
2018-03-19T02:06:37.628Z,34.35
2018-03-19T02:09:05.914Z,39.42
2018-03-19T02:11:34.618Z,37.90
2018-03-19T02:14:02.909Z,39.42
2018-03-19T02:16:31.214Z,31.55
2018-03-19T02:19:01.022Z,36.67
2018-03-19T02:21:29.303Z,35.35
2018-03-19T02:23:57.591Z,36.67
2018-03-19T02:26:27.790Z,38.92
2018-03-19T02:28:56.156Z,39.13
2018-03-19T02:31:24.663Z,36.30
2018-03-19T02:33:53.556Z,47.35
2018-03-19T02:36:21.861Z,37.78
2018-03-19T02:38:50.161Z,34.13
2018-03-19T02:41:18.872Z,36.42
2018-03-19T02:43:47.142Z,37.67
2018-03-19T02:46:15.423Z,41.83
2018-03-19T02:48:44.367Z,48.67
2018-03-19T02:51:12.662Z,37.15
2018-03-19T02:53:40.954Z,38.53
2018-03-19T02:56:10.951Z,42.22
2018-03-19T02:58:39.259Z,34.10
2018-03-19T03:01:08.586Z,48.80
2018-03-19T03:03:37.547Z,48.70
2018-03-19T03:06:05.833Z,40.25
2018-03-19T03:08:34.888Z,49.85
2018-03-19T03:11:04.123Z,49.30
2018-03-19T03:13:33.191Z,36.90
2018-03-19T03:16:01.762Z,42.65
2018-03-19T03:18:31.056Z,38.85
2018-03-19T03:20:59.337Z,36.13
2018-03-19T03:23:27.628Z,48.50
2018-03-19T03:25:56.760Z,44.33
2018-03-19T03:28:26.044Z,47.45
2018-03-19T03:30:54.345Z,56.45
2018-03-19T03:33:23.223Z,56.28
2018-03-19T03:35:51.529Z,42.50
2018-03-19T03:38:19.890Z,43.87
2018-03-19T03:40:48.810Z,38.92
2018-03-19T03:43:17.119Z,44.53
2018-03-19T03:45:46.173Z,49.53
2018-03-19T03:48:15.595Z,48.78
2018-03-19T03:50:43.873Z,48.65
2018-03-19T03:53:12.150Z,45.12
2018-03-19T03:55:41.099Z,48.10
2018-03-19T03:58:10.148Z,56.75
2018-03-19T04:00:38.437Z,45.17
2018-03-19T04:03:07.648Z,47.55
2018-03-19T04:05:36.294Z,45.28
2018-03-19T04:08:04.645Z,50.05
2018-03-19T04:10:33.827Z,49.67
2018-03-19T04:13:02.912Z,46.63
2018-03-19T04:15:32.349Z,50.15
2018-03-19T04:18:01.188Z,54.80
2018-03-19T04:20:33.893Z,51.45
2018-03-19T04:23:04.401Z,58.13
2018-03-19T04:25:32.681Z,43.65
2018-03-19T04:28:01.856Z,46.45
2018-03-19T04:30:33.679Z,48.15
2018-03-19T04:33:01.984Z,48.92
2018-03-19T04:35:31.030Z,47.67
2018-03-19T04:38:00.984Z,56.17
2018-03-19T04:40:29.271Z,49.58
2018-03-19T04:42:58.337Z,52.97
2018-03-19T04:45:27.028Z,56.25
2018-03-19T04:47:55.339Z,53.30
2018-03-19T04:50:23.629Z,66.70
2018-03-19T04:52:53.622Z,47.20
2018-03-19T04:55:22.005Z,48.38
2018-03-19T04:57:50.353Z,55.08
2018-03-19T05:00:19.996Z,50.35
2018-03-19T05:02:48.293Z,52.20
2018-03-19T05:05:17.384Z,39.17
2018-03-19T05:07:46.585Z,49.53
2018-03-19T05:10:14.870Z,46.60
2018-03-19T05:12:43.174Z,48.58
2018-03-19T05:15:12.614Z,42.75
2018-03-19T05:17:40.942Z,53.30
2018-03-19T05:20:09.242Z,49.40
2018-03-19T05:22:38.803Z,53.03
2018-03-19T05:25:07.862Z,54.50
2018-03-19T05:27:36.170Z,55.15
2018-03-19T05:30:05.824Z,51.88
2018-03-19T05:32:35.807Z,54.75
2018-03-19T05:35:04.099Z,46.17
2018-03-19T05:37:32.831Z,59.13
2018-03-19T05:40:01.111Z,50.67
2018-03-19T05:42:30.191Z,46.58
2018-03-19T05:44:59.185Z,44.90
2018-03-19T05:47:27.479Z,50.03
2018-03-19T05:49:55.770Z,62.45
2018-03-19T05:52:25.635Z,53.28
2018-03-19T05:54:53.930Z,48.80
2018-03-19T05:57:22.236Z,62.25
2018-03-19T05:59:51.270Z,68.45
2018-03-19T06:02:20.326Z,55.15
2018-03-19T06:04:48.632Z,52.03
2018-03-19T06:07:19.051Z,51.37
2018-03-19T06:09:47.427Z,51.88
2018-03-19T06:12:15.731Z,52.25
2018-03-19T06:14:45.756Z,55.58
2018-03-19T06:17:14.820Z,56.47
2018-03-19T06:19:43.140Z,48.83
2018-03-19T06:22:13.266Z,49.70
2018-03-19T06:24:42.317Z,56.47
2018-03-19T06:27:10.869Z,49.90
2018-03-19T06:29:39.612Z,52.85
2018-03-19T06:32:08.078Z,49.28
2018-03-19T06:34:38.591Z,53.97
2018-03-19T06:37:07.326Z,55.80
2018-03-19T06:39:35.625Z,52.65
2018-03-19T06:42:03.911Z,52.20
2018-03-19T06:44:33.873Z,43.92
2018-03-19T06:47:02.221Z,46.28
2018-03-19T06:49:30.524Z,61.75
2018-03-19T06:51:59.507Z,50.28
2018-03-19T06:54:27.778Z,51.42
2018-03-19T06:56:56.822Z,54.53
2018-03-19T06:59:26.021Z,53.55
2018-03-19T07:01:54.383Z,46.03
2018-03-19T07:04:22.710Z,44.88
2018-03-19T07:06:51.922Z,56.42
2018-03-19T07:09:20.831Z,49.20
2018-03-19T07:11:49.160Z,44.20
2018-03-19T07:14:17.926Z,48.55
2018-03-19T07:16:46.269Z,52.17
2018-03-19T07:19:14.578Z,49.58
2018-03-19T07:21:44.303Z,51.80
2018-03-19T07:24:12.979Z,46.55
2018-03-19T07:26:41.323Z,44.88
2018-03-19T07:29:10.304Z,41.67
2018-03-19T07:31:38.684Z,41.83
2018-03-19T07:34:07.082Z,43.33
2018-03-19T07:36:38.499Z,50.40
2018-03-19T07:39:07.730Z,43.60
2018-03-19T07:41:36.226Z,38.25
2018-03-19T07:44:05.652Z,48.78
2018-03-19T07:46:34.168Z,41.33
2018-03-19T07:49:03.035Z,41.72
2018-03-19T07:51:33.017Z,43.58
2018-03-19T07:54:01.573Z,47.78
2018-03-19T07:56:31.792Z,46.65
2018-03-19T07:59:01.299Z,53.75
2018-03-19T08:01:30.872Z,37.17
2018-03-19T08:04:01.839Z,42.95
2018-03-19T08:06:30.946Z,41.80
2018-03-19T08:09:00.089Z,44.13
2018-03-19T08:11:29.354Z,50.03
2018-03-19T08:13:57.693Z,55.95
2018-03-19T08:16:26.085Z,45.85
2018-03-19T08:18:54.983Z,48.35
2018-03-19T08:21:23.810Z,46.03
2018-03-19T08:23:52.452Z,44.70
2018-03-19T08:26:21.659Z,41.92
2018-03-19T08:28:49.948Z,48.25
2018-03-19T08:31:18.246Z,38.00
2018-03-19T08:33:47.182Z,44.67
2018-03-19T08:36:15.530Z,49.25
2018-03-19T08:38:45.290Z,37.05
2018-03-19T08:41:13.697Z,40.42
2018-03-19T08:43:42.411Z,42.65
2018-03-19T08:46:11.708Z,40.25
2018-03-19T08:48:41.133Z,35.40
2018-03-19T08:51:09.645Z,38.97
2018-03-19T08:53:38.008Z,33.45
2018-03-19T08:56:07.539Z,38.05
2018-03-19T08:58:35.885Z,41.35
2018-03-19T09:01:04.800Z,39.92
2018-03-19T09:03:34.168Z,35.83
2018-03-19T09:06:02.976Z,40.05
2018-03-19T09:08:32.285Z,39.33
2018-03-19T09:11:01.789Z,41.53
2018-03-19T09:13:30.471Z,41.53
2018-03-19T09:15:59.646Z,34.85
2018-03-19T09:18:29.075Z,38.53
2018-03-19T09:20:57.460Z,35.30
2018-03-19T09:23:26.561Z,34.17
2018-03-19T09:25:55.249Z,38.15
2018-03-19T09:28:24.092Z,45.80
2018-03-19T09:30:53.269Z,41.35
2018-03-19T09:33:22.879Z,39.47
2018-03-19T09:35:51.667Z,39.15
2018-03-19T09:38:20.150Z,43.00
2018-03-19T09:40:51.840Z,40.47
2018-03-19T09:43:21.419Z,38.88
2018-03-19T09:45:49.916Z,39.58
2018-03-19T09:48:20.345Z,37.65
2018-03-19T09:50:50.159Z,45.55
2018-03-19T09:53:18.521Z,35.17
2018-03-19T09:55:47.339Z,36.65
2018-03-19T09:58:16.687Z,35.58
2018-03-19T10:00:45.859Z,45.20
2018-03-19T10:03:15.530Z,36.28
2018-03-19T10:05:43.806Z,42.75
2018-03-19T10:08:12.339Z,35.35
2018-03-19T10:10:42.219Z,33.30
2018-03-19T10:13:12.528Z,39.13
2018-03-19T10:15:42.603Z,42.00
2018-03-19T10:18:11.290Z,38.92
2018-03-19T10:20:40.665Z,41.55
2018-03-19T10:23:09.699Z,38.08
2018-03-19T10:25:39.044Z,38.63
2018-03-19T10:28:07.453Z,41.72
2018-03-19T10:30:36.744Z,41.33
2018-03-19T10:33:05.089Z,41.37
2018-03-19T10:35:33.383Z,37.75
2018-03-19T10:38:02.559Z,34.60
2018-03-19T10:40:30.884Z,38.30
2018-03-19T10:43:01.748Z,43.20
2018-03-19T10:45:30.691Z,41.75
2018-03-19T10:47:59.506Z,45.08
2018-03-19T10:50:28.285Z,40.05
2018-03-19T10:52:57.285Z,39.97
2018-03-19T10:55:26.400Z,41.15
2018-03-19T10:57:55.579Z,36.08
2018-03-19T11:00:25.971Z,40.85
2018-03-19T11:02:54.832Z,43.25
2018-03-19T11:05:30.288Z,41.40
2018-03-19T11:08:04.771Z,38.08
2018-03-19T11:10:34.238Z,43.45
2018-03-19T11:13:02.602Z,32.70
2018-03-19T11:15:31.988Z,46.30
2018-03-19T11:18:03.680Z,46.65
2018-03-19T11:20:33.963Z,40.58
2018-03-19T11:23:06.373Z,47.05
2018-03-19T11:25:35.595Z,42.25
2018-03-19T11:28:05.137Z,38.15
2018-03-19T11:30:33.906Z,38.88
2018-03-19T11:33:05.475Z,32.03
2018-03-19T11:35:39.817Z,52.47
2018-03-19T11:38:09.222Z,44.63
2018-03-19T11:40:37.668Z,38.40
2018-03-19T11:43:08.950Z,33.40
2018-03-19T11:45:37.714Z,39.05
2018-03-19T11:48:06.155Z,50.88
2018-03-19T11:50:36.028Z,43.75
2018-03-19T11:53:05.730Z,41.40
2018-03-19T11:55:36.112Z,39.13
2018-03-19T11:58:05.411Z,45.00
2018-03-19T12:00:34.532Z,39.40
2018-03-19T12:03:03.733Z,41.28
2018-03-19T12:05:35.401Z,42.92
2018-03-19T12:08:06.440Z,53.00
2018-03-19T12:10:36.111Z,45.00
2018-03-19T12:13:04.646Z,48.50
2018-03-19T12:15:34.225Z,42.67
2018-03-19T12:18:04.234Z,45.83
2018-03-19T12:20:33.178Z,47.92
2018-03-19T12:23:03.088Z,42.05
2018-03-19T12:25:33.330Z,40.75
2018-03-19T12:28:02.207Z,42.83
2018-03-19T12:30:32.310Z,37.92
2018-03-19T12:33:02.176Z,47.80
2018-03-19T12:35:30.752Z,51.72
2018-03-19T12:38:01.529Z,36.13
2018-03-19T12:40:31.642Z,38.00
2018-03-19T12:43:00.640Z,39.85
2018-03-19T12:45:32.046Z,45.42
2018-03-19T12:48:00.539Z,44.47
2018-03-19T12:50:29.505Z,39.60
2018-03-19T12:52:59.043Z,45.38
2018-03-19T12:55:27.693Z,47.00
2018-03-19T12:57:56.262Z,51.25
2018-03-19T13:00:25.585Z,37.63
2018-03-19T13:02:54.278Z,41.53
2018-03-19T13:05:23.004Z,41.83
2018-03-19T13:07:52.228Z,40.63
2018-03-19T13:10:20.774Z,36.53
2018-03-19T13:12:49.563Z,40.97
2018-03-19T13:15:18.994Z,39.67
2018-03-19T13:17:47.994Z,40.25
2018-03-19T13:20:16.657Z,46.65
2018-03-19T13:22:46.157Z,35.60
2018-03-19T13:25:15.241Z,40.33
2018-03-19T13:27:43.668Z,45.90
2018-03-19T13:30:12.969Z,37.72
2018-03-19T13:32:41.921Z,46.78
2018-03-19T13:35:11.066Z,39.92
2018-03-19T13:37:41.164Z,42.22
2018-03-19T13:40:10.330Z,45.17
2018-03-19T13:42:38.978Z,41.65
2018-03-19T13:45:08.855Z,43.17
2018-03-19T13:47:39.302Z,40.45
2018-03-19T13:50:07.591Z,39.70
2018-03-19T13:52:38.660Z,44.83
2018-03-19T13:55:08.312Z,47.60
2018-03-19T13:57:37.035Z,37.30
2018-03-19T14:00:07.683Z,45.47
2018-03-19T14:02:36.662Z,43.42
2018-03-19T14:05:06.232Z,41.25
2018-03-19T14:07:35.306Z,47.15
2018-03-19T14:10:04.994Z,47.70
2018-03-19T14:12:33.732Z,40.70
2018-03-19T14:15:02.832Z,40.92
2018-03-19T14:17:31.799Z,38.83
2018-03-19T14:20:08.734Z,41.67
2018-03-19T14:22:38.595Z,45.72
2018-03-19T14:25:09.955Z,38.38
2018-03-19T14:27:38.515Z,35.35
2018-03-19T14:30:07.514Z,42.60
2018-03-19T14:32:37.515Z,35.13
2018-03-19T14:35:06.616Z,41.03
2018-03-19T14:37:35.132Z,36.33
2018-03-19T14:40:05.850Z,45.60
2018-03-19T14:42:36.067Z,40.70
2018-03-19T14:45:04.974Z,42.88
2018-03-19T14:47:34.050Z,36.42
2018-03-19T14:50:04.239Z,42.75
2018-03-19T14:52:33.721Z,40.15
2018-03-19T14:55:03.755Z,37.15
2018-03-19T14:57:34.724Z,46.63
2018-03-19T15:00:03.787Z,41.60
2018-03-19T15:02:32.557Z,45.38
2018-03-19T15:05:02.341Z,43.70
2018-03-19T15:07:32.108Z,40.97
2018-03-19T15:10:01.802Z,38.13
2018-03-19T15:12:30.893Z,47.50
2018-03-19T15:15:01.203Z,41.97
2018-03-19T15:17:31.655Z,36.15
2018-03-19T15:20:03.138Z,37.10
2018-03-19T15:22:32.816Z,45.63
2018-03-19T15:25:01.659Z,46.30
2018-03-19T15:27:31.698Z,43.33
2018-03-19T15:30:00.456Z,44.55
2018-03-19T15:32:29.915Z,41.85
2018-03-19T15:34:59.393Z,39.58
2018-03-19T15:37:27.756Z,43.97
2018-03-19T15:39:57.034Z,36.05
2018-03-19T15:42:26.134Z,44.30
2018-03-19T15:44:55.155Z,37.30
2018-03-19T15:47:23.518Z,39.50
2018-03-19T15:49:53.546Z,44.13
2018-03-19T15:52:24.837Z,39.55
2018-03-19T15:54:54.767Z,43.60
2018-03-19T15:57:23.418Z,39.08
2018-03-19T15:59:52.710Z,39.45
2018-03-19T16:02:23.858Z,46.05
2018-03-19T16:04:52.933Z,42.40
2018-03-19T16:07:24.163Z,38.05
2018-03-19T16:09:53.854Z,43.15
2018-03-19T16:12:24.168Z,45.35
2018-03-19T16:14:54.421Z,42.53
2018-03-19T16:17:25.363Z,41.65
2018-03-19T16:19:55.765Z,41.92
2018-03-19T16:22:24.427Z,40.05
2018-03-19T16:24:54.351Z,47.85
2018-03-19T16:27:24.028Z,45.85
2018-03-19T16:29:55.962Z,51.37
2018-03-19T16:32:25.818Z,45.00
2018-03-19T16:34:55.746Z,45.25
2018-03-19T16:37:24.722Z,53.30
2018-03-19T16:39:53.888Z,51.95
2018-03-19T16:42:23.462Z,46.80
2018-03-19T16:44:51.854Z,45.67
2018-03-19T16:47:20.740Z,56.85
2018-03-19T16:49:50.343Z,54.33
2018-03-19T16:52:19.160Z,56.60
2018-03-19T16:54:50.482Z,59.53
2018-03-19T16:57:19.199Z,47.97
2018-03-19T16:59:48.271Z,55.72
2018-03-19T17:02:18.684Z,48.47
2018-03-19T17:04:47.453Z,54.20
2018-03-19T17:07:17.122Z,50.63
2018-03-19T17:09:46.527Z,55.63
2018-03-19T17:12:15.388Z,54.42
2018-03-19T17:14:45.808Z,52.40
2018-03-19T17:17:16.233Z,60.55
2018-03-19T17:19:44.593Z,51.47
2018-03-19T17:22:12.969Z,56.78
2018-03-19T17:24:43.622Z,58.45
2018-03-19T17:27:12.526Z,58.45
2018-03-19T17:29:42.286Z,52.58
2018-03-19T17:32:11.720Z,59.75
2018-03-19T17:34:41.234Z,51.13
2018-03-19T17:37:10.014Z,56.13
2018-03-19T17:39:40.352Z,57.35
2018-03-19T17:42:08.828Z,53.72
2018-03-19T17:44:38.558Z,62.05
2018-03-19T17:47:08.580Z,59.25
2018-03-19T17:49:37.667Z,56.30
2018-03-19T17:52:05.987Z,57.97
2018-03-19T17:54:35.183Z,58.40
2018-03-19T17:57:05.902Z,63.03
2018-03-19T17:59:35.426Z,65.85
2018-03-19T18:02:04.980Z,55.25
2018-03-19T18:04:33.836Z,74.85
2018-03-19T18:07:03.342Z,43.65
2018-03-19T18:09:32.390Z,52.47
2018-03-19T18:12:01.512Z,51.97
2018-03-19T18:14:31.004Z,53.60
2018-03-19T18:17:00.351Z,47.83
2018-03-19T18:19:29.057Z,52.58
2018-03-19T18:21:58.623Z,54.58
2018-03-19T18:24:27.052Z,59.13
2018-03-19T18:26:55.360Z,65.00
2018-03-19T18:29:24.401Z,52.42
2018-03-19T18:31:53.637Z,60.72
2018-03-19T18:34:22.076Z,50.78
2018-03-19T18:36:51.315Z,58.55
2018-03-19T18:39:20.370Z,67.97
2018-03-19T18:41:48.687Z,65.10
2018-03-19T18:44:17.708Z,69.85
2018-03-19T18:46:46.290Z,71.43
2018-03-19T18:49:14.986Z,63.65
2018-03-19T18:51:45.164Z,63.40
2018-03-19T18:54:13.882Z,63.40
2018-03-19T18:56:42.273Z,73.03
2018-03-19T18:59:13.353Z,65.75
2018-03-19T19:01:41.673Z,74.75
2018-03-19T19:04:10.761Z,62.55
2018-03-19T19:06:39.919Z,55.12
2018-03-19T19:09:08.522Z,69.15
2018-03-19T19:11:36.852Z,79.15
2018-03-19T19:14:07.876Z,54.58
2018-03-19T19:16:36.504Z,51.35
2018-03-19T19:19:06.335Z,56.75
2018-03-19T19:21:35.918Z,56.53
2018-03-19T19:24:04.465Z,49.35
2018-03-19T19:26:33.030Z,63.85
2018-03-19T19:29:02.135Z,72.60
2018-03-19T19:31:31.779Z,55.88
2018-03-19T19:34:00.712Z,63.20
2018-03-19T19:36:29.876Z,73.30
2018-03-19T19:38:58.768Z,75.12
2018-03-19T19:41:27.278Z,62.88
2018-03-19T19:43:57.504Z,62.75
2018-03-19T19:46:27.452Z,58.40
2018-03-19T19:48:56.476Z,55.15
2018-03-19T19:51:26.463Z,54.78
2018-03-19T19:53:55.792Z,59.78
2018-03-19T19:56:25.497Z,62.55
2018-03-19T19:58:56.577Z,59.22
2018-03-19T20:01:27.048Z,70.20
2018-03-19T20:03:58.013Z,69.72
2018-03-19T20:06:26.567Z,60.42
2018-03-19T20:08:55.027Z,60.70
2018-03-19T20:11:23.814Z,61.80
2018-03-19T20:13:53.562Z,60.60
2018-03-19T20:16:30.617Z,69.32
2018-03-19T20:19:01.691Z,55.35
2018-03-19T20:21:33.251Z,55.72
2018-03-19T20:24:03.316Z,62.60
2018-03-19T20:26:31.696Z,62.35
2018-03-19T20:29:00.547Z,60.95
2018-03-19T20:31:29.137Z,54.30
2018-03-19T20:33:57.651Z,61.30
2018-03-19T20:36:26.938Z,70.75
2018-03-19T20:38:55.323Z,65.32
2018-03-19T20:41:23.777Z,68.43
2018-03-19T20:43:54.961Z,62.88
2018-03-19T20:46:24.093Z,65.70
2018-03-19T20:48:52.439Z,61.30
2018-03-19T20:51:21.872Z,56.90
2018-03-19T20:53:50.177Z,58.03
2018-03-19T20:56:18.526Z,60.35
2018-03-19T20:58:46.827Z,77.43
2018-03-19T21:01:15.812Z,66.40
2018-03-19T21:03:45.904Z,63.83
2018-03-19T21:06:16.256Z,68.00
2018-03-19T21:08:45.389Z,70.10
2018-03-19T21:11:13.755Z,77.80
2018-03-19T21:13:42.536Z,74.87
2018-03-19T21:16:11.266Z,81.35
2018-03-19T21:18:39.986Z,74.90
2018-03-19T21:21:09.381Z,82.90
2018-03-19T21:23:39.624Z,59.72
2018-03-19T21:26:07.937Z,88.82
2018-03-19T21:28:37.133Z,82.47
2018-03-19T21:31:05.954Z,67.15
2018-03-19T21:33:34.511Z,81.35
2018-03-19T21:36:03.263Z,74.57
2018-03-19T21:38:31.614Z,68.05
2018-03-19T21:40:59.999Z,72.00
2018-03-19T21:43:28.855Z,68.12
2018-03-19T21:45:57.178Z,68.28
2018-03-19T21:48:26.283Z,63.90
2018-03-19T21:50:56.118Z,69.90
2018-03-19T21:53:24.583Z,80.32
2018-03-19T21:55:52.907Z,61.88
2018-03-19T21:58:21.821Z,57.25
2018-03-19T22:00:50.122Z,73.32
2018-03-19T22:03:19.247Z,69.60
2018-03-19T22:05:50.036Z,76.25
2018-03-19T22:08:18.437Z,65.90
2018-03-19T22:10:47.956Z,67.62
2018-03-19T22:13:16.727Z,75.57
2018-03-19T22:15:45.566Z,72.07
2018-03-19T22:18:14.092Z,66.25
2018-03-19T22:20:43.238Z,65.65
2018-03-19T22:23:11.658Z,64.05
2018-03-19T22:25:40.037Z,71.50
2018-03-19T22:28:10.636Z,74.97
2018-03-19T22:30:39.048Z,89.40
2018-03-19T22:33:08.133Z,85.07
2018-03-19T22:35:37.959Z,88.78
2018-03-19T22:38:07.054Z,81.18
2018-03-19T22:40:35.364Z,76.55
2018-03-19T22:43:04.438Z,87.95
2018-03-19T22:45:33.506Z,88.35
2018-03-19T22:48:02.083Z,76.97
2018-03-19T22:50:30.981Z,72.30
2018-03-19T22:52:59.305Z,59.50
2018-03-19T22:55:28.379Z,74.75
2018-03-19T22:57:57.595Z,73.20
2018-03-19T23:00:26.231Z,92.75
2018-03-19T23:02:54.559Z,82.07
2018-03-19T23:05:24.344Z,86.63
2018-03-19T23:07:54.563Z,81.40
2018-03-19T23:10:22.854Z,85.12
2018-03-19T23:12:51.922Z,87.30
2018-03-19T23:15:20.238Z,84.13
2018-03-19T23:17:48.554Z,75.07
2018-03-19T23:20:17.533Z,66.50
2018-03-19T23:22:45.840Z,77.43
2018-03-19T23:25:14.203Z,76.25
2018-03-19T23:27:44.223Z,80.18
2018-03-19T23:30:12.559Z,76.40
2018-03-19T23:32:40.885Z,78.95
2018-03-19T23:35:09.867Z,81.45
2018-03-19T23:40:13.896Z,90.57
2018-03-19T23:42:42.277Z,77.57
2018-03-19T23:45:10.606Z,79.30
2018-03-19T23:47:40.506Z,86.35
2018-03-19T23:50:08.817Z,70.30
2018-03-19T23:52:37.117Z,78.47
2018-03-19T23:55:06.351Z,72.80
2018-03-19T23:57:34.755Z,68.50
